sensor_id;sensor_type;location;lat;lon;timestamp;temperature;humidity
7254;DHT22;4060;49.186;9.226;2023-06-24T00:01:26;28.20;37.90
7254;DHT22;4060;49.186;9.226;2023-06-24T00:03:57;28.10;37.90
7254;DHT22;4060;49.186;9.226;2023-06-24T00:06:27;28.10;37.90
7254;DHT22;4060;49.186;9.226;2023-06-24T00:08:57;28.10;38.00
7254;DHT22;4060;49.186;9.226;2023-06-24T00:14:20;28.00;38.00
7254;DHT22;4060;49.186;9.226;2023-06-24T00:16:51;28.00;38.00
7254;DHT22;4060;49.186;9.226;2023-06-24T00:19:25;28.00;38.10
7254;DHT22;4060;49.186;9.226;2023-06-24T00:21:56;27.90;38.10
7254;DHT22;4060;49.186;9.226;2023-06-24T00:24:28;27.90;38.10
7254;DHT22;4060;49.186;9.226;2023-06-24T00:26:57;27.90;38.10
7254;DHT22;4060;49.186;9.226;2023-06-24T00:29:27;27.90;38.20
7254;DHT22;4060;49.186;9.226;2023-06-24T00:31:57;27.80;38.20
7254;DHT22;4060;49.186;9.226;2023-06-24T00:34:29;27.80;38.20
7254;DHT22;4060;49.186;9.226;2023-06-24T00:37:00;27.80;38.30
7254;DHT22;4060;49.186;9.226;2023-06-24T00:39:30;27.70;38.20
7254;DHT22;4060;49.186;9.226;2023-06-24T00:41:59;27.70;38.30
7254;DHT22;4060;49.186;9.226;2023-06-24T00:44:31;27.70;38.30
7254;DHT22;4060;49.186;9.226;2023-06-24T00:47:01;27.70;38.30
7254;DHT22;4060;49.186;9.226;2023-06-24T00:49:34;27.60;38.30
7254;DHT22;4060;49.186;9.226;2023-06-24T00:52:04;27.60;38.40
7254;DHT22;4060;49.186;9.226;2023-06-24T00:54:34;27.60;38.40
7254;DHT22;4060;49.186;9.226;2023-06-24T00:57:04;27.60;38.50
7254;DHT22;4060;49.186;9.226;2023-06-24T00:59:35;27.50;38.40
7254;DHT22;4060;49.186;9.226;2023-06-24T01:02:06;27.50;38.50
7254;DHT22;4060;49.186;9.226;2023-06-24T01:04:37;27.50;38.50
7254;DHT22;4060;49.186;9.226;2023-06-24T01:07:07;27.40;38.50
7254;DHT22;4060;49.186;9.226;2023-06-24T01:09:37;27.40;38.50
7254;DHT22;4060;49.186;9.226;2023-06-24T01:12:08;27.40;38.50
7254;DHT22;4060;49.186;9.226;2023-06-24T01:14:38;27.40;38.60
7254;DHT22;4060;49.186;9.226;2023-06-24T01:17:12;27.30;38.60
7254;DHT22;4060;49.186;9.226;2023-06-24T01:20:04;27.30;38.60
7254;DHT22;4060;49.186;9.226;2023-06-24T01:26:20;27.30;38.70
7254;DHT22;4060;49.186;9.226;2023-06-24T01:29:14;27.20;38.80
7254;DHT22;4060;49.186;9.226;2023-06-24T01:31:55;27.20;38.80
7254;DHT22;4060;49.186;9.226;2023-06-24T01:34:32;27.10;38.80
7254;DHT22;4060;49.186;9.226;2023-06-24T01:37:11;27.10;38.90
7254;DHT22;4060;49.186;9.226;2023-06-24T01:39:48;27.10;38.90
7254;DHT22;4060;49.186;9.226;2023-06-24T01:42:20;27.00;38.90
7254;DHT22;4060;49.186;9.226;2023-06-24T01:44:51;27.00;39.00
7254;DHT22;4060;49.186;9.226;2023-06-24T01:47:27;27.00;39.00
7254;DHT22;4060;49.186;9.226;2023-06-24T01:50:01;27.00;39.00
7254;DHT22;4060;49.186;9.226;2023-06-24T01:52:33;27.00;39.00
7254;DHT22;4060;49.186;9.226;2023-06-24T01:55:05;27.00;39.10
7254;DHT22;4060;49.186;9.226;2023-06-24T01:57:37;26.90;39.00
7254;DHT22;4060;49.186;9.226;2023-06-24T02:00:10;26.90;39.10
7254;DHT22;4060;49.186;9.226;2023-06-24T02:02:42;26.90;39.20
7254;DHT22;4060;49.186;9.226;2023-06-24T02:05:14;26.80;39.10
7254;DHT22;4060;49.186;9.226;2023-06-24T02:07:45;26.80;39.20
7254;DHT22;4060;49.186;9.226;2023-06-24T02:10:17;26.80;39.20
7254;DHT22;4060;49.186;9.226;2023-06-24T02:12:49;26.70;39.10
7254;DHT22;4060;49.186;9.226;2023-06-24T02:15:20;26.70;39.20
7254;DHT22;4060;49.186;9.226;2023-06-24T02:17:53;26.70;39.20
7254;DHT22;4060;49.186;9.226;2023-06-24T02:20:24;26.70;39.30
7254;DHT22;4060;49.186;9.226;2023-06-24T02:22:56;26.70;39.30
7254;DHT22;4060;49.186;9.226;2023-06-24T02:25:28;26.60;39.30
7254;DHT22;4060;49.186;9.226;2023-06-24T02:27:58;26.60;39.30
7254;DHT22;4060;49.186;9.226;2023-06-24T02:30:29;26.60;39.30
7254;DHT22;4060;49.186;9.226;2023-06-24T02:33:01;26.60;39.40
7254;DHT22;4060;49.186;9.226;2023-06-24T02:35:30;26.60;39.40
7254;DHT22;4060;49.186;9.226;2023-06-24T02:38:00;26.50;39.40
7254;DHT22;4060;49.186;9.226;2023-06-24T02:40:30;26.50;39.50
7254;DHT22;4060;49.186;9.226;2023-06-24T02:43:00;26.50;39.50
7254;DHT22;4060;49.186;9.226;2023-06-24T02:45:30;26.40;39.50
7254;DHT22;4060;49.186;9.226;2023-06-24T02:48:03;26.40;39.50
7254;DHT22;4060;49.186;9.226;2023-06-24T02:50:34;26.40;39.60
7254;DHT22;4060;49.186;9.226;2023-06-24T02:53:05;26.40;39.60
7254;DHT22;4060;49.186;9.226;2023-06-24T02:55:35;26.40;39.70
7254;DHT22;4060;49.186;9.226;2023-06-24T02:58:05;26.30;39.60
7254;DHT22;4060;49.186;9.226;2023-06-24T03:00:35;26.30;39.70
7254;DHT22;4060;49.186;9.226;2023-06-24T03:03:07;26.30;39.70
7254;DHT22;4060;49.186;9.226;2023-06-24T03:05:37;26.20;39.70
7254;DHT22;4060;49.186;9.226;2023-06-24T03:08:08;26.20;39.80
7254;DHT22;4060;49.186;9.226;2023-06-24T03:10:38;26.20;39.80
7254;DHT22;4060;49.186;9.226;2023-06-24T03:13:08;26.20;39.90
7254;DHT22;4060;49.186;9.226;2023-06-24T03:15:37;26.20;39.90
7254;DHT22;4060;49.186;9.226;2023-06-24T03:18:09;26.10;39.90
7254;DHT22;4060;49.186;9.226;2023-06-24T03:20:38;26.10;40.00
7254;DHT22;4060;49.186;9.226;2023-06-24T03:23:08;26.10;40.00
7254;DHT22;4060;49.186;9.226;2023-06-24T03:25:38;26.10;40.10
7254;DHT22;4060;49.186;9.226;2023-06-24T03:28:08;26.00;40.10
7254;DHT22;4060;49.186;9.226;2023-06-24T03:30:38;26.00;40.20
7254;DHT22;4060;49.186;9.226;2023-06-24T03:33:10;26.00;40.20
7254;DHT22;4060;49.186;9.226;2023-06-24T03:35:44;26.00;40.30
7254;DHT22;4060;49.186;9.226;2023-06-24T03:38:15;25.90;40.30
7254;DHT22;4060;49.186;9.226;2023-06-24T03:40:44;25.90;40.40
7254;DHT22;4060;49.186;9.226;2023-06-24T03:43:14;25.90;40.40
7254;DHT22;4060;49.186;9.226;2023-06-24T03:45:44;25.90;40.50
7254;DHT22;4060;49.186;9.226;2023-06-24T03:48:15;25.90;40.50
7254;DHT22;4060;49.186;9.226;2023-06-24T03:50:44;25.80;40.50
7254;DHT22;4060;49.186;9.226;2023-06-24T03:53:14;25.80;40.60
7254;DHT22;4060;49.186;9.226;2023-06-24T03:55:43;25.80;40.60
7254;DHT22;4060;49.186;9.226;2023-06-24T03:58:13;25.80;40.70
7254;DHT22;4060;49.186;9.226;2023-06-24T04:00:44;25.70;40.70
7254;DHT22;4060;49.186;9.226;2023-06-24T04:03:18;25.70;40.70
7254;DHT22;4060;49.186;9.226;2023-06-24T04:05:47;25.70;40.80
7254;DHT22;4060;49.186;9.226;2023-06-24T04:08:17;25.70;40.90
7254;DHT22;4060;49.186;9.226;2023-06-24T04:10:47;25.60;40.90
7254;DHT22;4060;49.186;9.226;2023-06-24T04:13:16;25.60;41.40
7254;DHT22;4060;49.186;9.226;2023-06-24T04:15:46;25.60;41.00
7254;DHT22;4060;49.186;9.226;2023-06-24T04:18:18;25.60;41.00
7254;DHT22;4060;49.186;9.226;2023-06-24T04:20:47;25.60;41.10
7254;DHT22;4060;49.186;9.226;2023-06-24T04:23:17;25.50;41.60
7254;DHT22;4060;49.186;9.226;2023-06-24T04:25:47;25.50;41.20
7254;DHT22;4060;49.186;9.226;2023-06-24T04:28:17;25.50;41.30
7254;DHT22;4060;49.186;9.226;2023-06-24T04:30:46;25.50;41.40
7254;DHT22;4060;49.186;9.226;2023-06-24T04:33:18;25.50;41.50
7254;DHT22;4060;49.186;9.226;2023-06-24T04:35:47;25.40;41.40
7254;DHT22;4060;49.186;9.226;2023-06-24T04:38:18;25.40;41.50
7254;DHT22;4060;49.186;9.226;2023-06-24T04:40:48;25.40;41.60
7254;DHT22;4060;49.186;9.226;2023-06-24T04:43:18;25.40;41.60
7254;DHT22;4060;49.186;9.226;2023-06-24T04:45:47;25.40;41.70
7254;DHT22;4060;49.186;9.226;2023-06-24T04:48:18;25.40;41.80
7254;DHT22;4060;49.186;9.226;2023-06-24T04:50:48;25.40;41.90
7254;DHT22;4060;49.186;9.226;2023-06-24T04:53:18;25.40;41.90
7254;DHT22;4060;49.186;9.226;2023-06-24T04:55:47;25.30;41.90
7254;DHT22;4060;49.186;9.226;2023-06-24T04:58:16;25.40;42.00
7254;DHT22;4060;49.186;9.226;2023-06-24T05:00:46;25.40;42.10
7254;DHT22;4060;49.186;9.226;2023-06-24T05:03:35;25.40;42.10
7254;DHT22;4060;49.186;9.226;2023-06-24T05:06:05;25.40;42.30
7254;DHT22;4060;49.186;9.226;2023-06-24T05:08:34;25.40;42.30
7254;DHT22;4060;49.186;9.226;2023-06-24T05:11:04;25.30;42.30
7254;DHT22;4060;49.186;9.226;2023-06-24T05:13:33;25.30;42.50
7254;DHT22;4060;49.186;9.226;2023-06-24T05:16:03;25.30;42.60
7254;DHT22;4060;49.186;9.226;2023-06-24T05:18:35;25.30;42.80
7254;DHT22;4060;49.186;9.226;2023-06-24T05:21:05;25.30;42.90
7254;DHT22;4060;49.186;9.226;2023-06-24T05:23:34;25.30;43.00
7254;DHT22;4060;49.186;9.226;2023-06-24T05:26:04;25.40;43.30
7254;DHT22;4060;49.186;9.226;2023-06-24T05:28:33;25.40;43.40
7254;DHT22;4060;49.186;9.226;2023-06-24T05:31:03;25.40;43.50
7254;DHT22;4060;49.186;9.226;2023-06-24T05:33:34;25.40;43.60
7254;DHT22;4060;49.186;9.226;2023-06-24T05:36:04;25.50;43.70
7254;DHT22;4060;49.186;9.226;2023-06-24T05:38:33;25.50;43.80
7254;DHT22;4060;49.186;9.226;2023-06-24T05:41:03;25.50;43.80
7254;DHT22;4060;49.186;9.226;2023-06-24T05:43:32;25.60;43.80
7254;DHT22;4060;49.186;9.226;2023-06-24T05:46:02;25.60;43.80
7254;DHT22;4060;49.186;9.226;2023-06-24T05:48:31;25.60;43.90
7254;DHT22;4060;49.186;9.226;2023-06-24T05:51:03;25.60;43.90
7254;DHT22;4060;49.186;9.226;2023-06-24T05:53:51;25.70;44.00
7254;DHT22;4060;49.186;9.226;2023-06-24T05:56:21;25.70;43.90
7254;DHT22;4060;49.186;9.226;2023-06-24T05:58:51;25.80;44.00
7254;DHT22;4060;49.186;9.226;2023-06-24T06:01:21;25.80;44.10
7254;DHT22;4060;49.186;9.226;2023-06-24T06:03:51;25.80;44.00
7254;DHT22;4060;49.186;9.226;2023-06-24T06:06:22;25.80;44.00
7254;DHT22;4060;49.186;9.226;2023-06-24T06:08:52;25.80;44.10
7254;DHT22;4060;49.186;9.226;2023-06-24T06:11:21;25.90;44.20
7254;DHT22;4060;49.186;9.226;2023-06-24T06:13:51;25.90;44.20
7254;DHT22;4060;49.186;9.226;2023-06-24T06:16:21;25.90;44.20
7254;DHT22;4060;49.186;9.226;2023-06-24T06:18:50;25.90;44.10
7254;DHT22;4060;49.186;9.226;2023-06-24T06:21:22;26.00;44.00
7254;DHT22;4060;49.186;9.226;2023-06-24T06:23:53;26.00;44.00
7254;DHT22;4060;49.186;9.226;2023-06-24T06:26:22;26.00;43.90
7254;DHT22;4060;49.186;9.226;2023-06-24T06:28:50;26.00;43.80
7254;DHT22;4060;49.186;9.226;2023-06-24T06:31:20;26.00;43.80
7254;DHT22;4060;49.186;9.226;2023-06-24T06:33:53;26.10;43.80
7254;DHT22;4060;49.186;9.226;2023-06-24T06:36:24;26.10;43.70
7254;DHT22;4060;49.186;9.226;2023-06-24T06:38:53;26.10;43.70
7254;DHT22;4060;49.186;9.226;2023-06-24T06:41:23;26.20;43.70
7254;DHT22;4060;49.186;9.226;2023-06-24T06:43:53;26.20;43.70
7254;DHT22;4060;49.186;9.226;2023-06-24T06:46:22;26.20;43.60
7254;DHT22;4060;49.186;9.226;2023-06-24T06:48:52;26.20;43.50
7254;DHT22;4060;49.186;9.226;2023-06-24T06:51:24;26.30;43.50
7254;DHT22;4060;49.186;9.226;2023-06-24T06:53:53;26.30;43.50
7254;DHT22;4060;49.186;9.226;2023-06-24T06:56:24;26.30;43.40
7254;DHT22;4060;49.186;9.226;2023-06-24T06:58:53;26.40;43.40
7254;DHT22;4060;49.186;9.226;2023-06-24T07:01:23;26.40;43.40
7254;DHT22;4060;49.186;9.226;2023-06-24T07:03:53;26.40;43.30
7254;DHT22;4060;49.186;9.226;2023-06-24T07:06:25;26.40;43.30
7254;DHT22;4060;49.186;9.226;2023-06-24T07:08:54;26.50;43.30
7254;DHT22;4060;49.186;9.226;2023-06-24T07:11:24;26.50;43.20
7254;DHT22;4060;49.186;9.226;2023-06-24T07:13:54;26.50;43.20
7254;DHT22;4060;49.186;9.226;2023-06-24T07:16:24;26.50;43.10
7254;DHT22;4060;49.186;9.226;2023-06-24T07:18:53;26.60;43.10
7254;DHT22;4060;49.186;9.226;2023-06-24T07:21:25;26.60;43.10
7254;DHT22;4060;49.186;9.226;2023-06-24T07:23:55;26.60;43.10
7254;DHT22;4060;49.186;9.226;2023-06-24T07:26:25;26.70;43.10
7254;DHT22;4060;49.186;9.226;2023-06-24T07:28:57;26.70;43.00
7254;DHT22;4060;49.186;9.226;2023-06-24T07:31:27;26.70;42.90
7254;DHT22;4060;49.186;9.226;2023-06-24T07:34:22;26.70;42.90
7254;DHT22;4060;49.186;9.226;2023-06-24T07:36:55;26.70;42.80
7254;DHT22;4060;49.186;9.226;2023-06-24T07:39:25;26.80;42.80
7254;DHT22;4060;49.186;9.226;2023-06-24T07:41:54;26.80;42.60
7254;DHT22;4060;49.186;9.226;2023-06-24T07:44:24;26.90;42.50
7254;DHT22;4060;49.186;9.226;2023-06-24T07:46:53;26.90;43.00
7254;DHT22;4060;49.186;9.226;2023-06-24T07:49:23;26.90;42.30
7254;DHT22;4060;49.186;9.226;2023-06-24T07:51:54;27.00;42.30
7254;DHT22;4060;49.186;9.226;2023-06-24T07:54:24;27.00;42.20
7254;DHT22;4060;49.186;9.226;2023-06-24T07:56:53;27.00;42.00
7254;DHT22;4060;49.186;9.226;2023-06-24T07:59:23;27.10;42.00
7254;DHT22;4060;49.186;9.226;2023-06-24T08:01:54;27.10;41.90
7254;DHT22;4060;49.186;9.226;2023-06-24T08:04:24;27.10;41.80
7254;DHT22;4060;49.186;9.226;2023-06-24T08:06:55;27.20;41.70
7254;DHT22;4060;49.186;9.226;2023-06-24T08:09:25;27.20;41.60
7254;DHT22;4060;49.186;9.226;2023-06-24T08:11:54;27.20;41.50
7254;DHT22;4060;49.186;9.226;2023-06-24T08:14:23;27.30;41.50
7254;DHT22;4060;49.186;9.226;2023-06-24T08:16:53;27.30;41.40
7254;DHT22;4060;49.186;9.226;2023-06-24T08:19:23;27.30;41.20
7254;DHT22;4060;49.186;9.226;2023-06-24T08:21:54;27.30;41.00
7254;DHT22;4060;49.186;9.226;2023-06-24T08:24:23;27.40;40.90
7254;DHT22;4060;49.186;9.226;2023-06-24T08:26:53;27.40;40.70
7254;DHT22;4060;49.186;9.226;2023-06-24T08:29:22;27.40;40.60
7254;DHT22;4060;49.186;9.226;2023-06-24T08:31:52;27.50;40.60
7254;DHT22;4060;49.186;9.226;2023-06-24T08:34:21;27.50;40.60
7254;DHT22;4060;49.186;9.226;2023-06-24T08:36:51;27.50;40.50
7254;DHT22;4060;49.186;9.226;2023-06-24T08:39:23;27.50;40.40
7254;DHT22;4060;49.186;9.226;2023-06-24T08:41:52;27.60;40.40
7254;DHT22;4060;49.186;9.226;2023-06-24T08:44:21;27.60;40.30
7254;DHT22;4060;49.186;9.226;2023-06-24T08:46:51;27.60;40.10
7254;DHT22;4060;49.186;9.226;2023-06-24T08:49:27;27.70;40.10
7254;DHT22;4060;49.186;9.226;2023-06-24T08:52:02;27.70;39.90
7254;DHT22;4060;49.186;9.226;2023-06-24T08:54:36;27.70;39.80
7254;DHT22;4060;49.186;9.226;2023-06-24T08:57:06;27.80;39.80
7254;DHT22;4060;49.186;9.226;2023-06-24T08:59:42;27.80;39.70
7254;DHT22;4060;49.186;9.226;2023-06-24T09:02:11;27.80;39.60
7254;DHT22;4060;49.186;9.226;2023-06-24T09:04:42;27.90;39.50
7254;DHT22;4060;49.186;9.226;2023-06-24T09:07:12;27.90;39.40
7254;DHT22;4060;49.186;9.226;2023-06-24T09:09:45;28.00;39.40
7254;DHT22;4060;49.186;9.226;2023-06-24T09:12:15;28.00;39.20
7254;DHT22;4060;49.186;9.226;2023-06-24T09:14:48;28.00;39.00
7254;DHT22;4060;49.186;9.226;2023-06-24T09:17:18;28.10;39.00
7254;DHT22;4060;49.186;9.226;2023-06-24T09:19:49;28.10;38.90
7254;DHT22;4060;49.186;9.226;2023-06-24T09:22:24;28.20;38.90
7254;DHT22;4060;49.186;9.226;2023-06-24T09:25:07;28.20;38.70
7254;DHT22;4060;49.186;9.226;2023-06-24T09:27:36;28.20;38.50
7254;DHT22;4060;49.186;9.226;2023-06-24T09:30:18;28.30;38.40
7254;DHT22;4060;49.186;9.226;2023-06-24T09:32:49;28.30;38.00
7254;DHT22;4060;49.186;9.226;2023-06-24T09:35:19;28.30;37.90
7254;DHT22;4060;49.186;9.226;2023-06-24T09:37:52;28.30;37.70
7254;DHT22;4060;49.186;9.226;2023-06-24T09:40:25;28.40;37.60
7254;DHT22;4060;49.186;9.226;2023-06-24T09:42:56;28.40;37.50
7254;DHT22;4060;49.186;9.226;2023-06-24T09:45:28;28.50;37.40
7254;DHT22;4060;49.186;9.226;2023-06-24T09:47:58;28.50;37.20
7254;DHT22;4060;49.186;9.226;2023-06-24T09:50:27;28.50;37.10
7254;DHT22;4060;49.186;9.226;2023-06-24T09:52:59;28.60;37.00
7254;DHT22;4060;49.186;9.226;2023-06-24T09:55:45;28.60;37.00
7254;DHT22;4060;49.186;9.226;2023-06-24T09:58:17;28.60;36.80
7254;DHT22;4060;49.186;9.226;2023-06-24T10:00:47;28.70;36.90
7254;DHT22;4060;49.186;9.226;2023-06-24T10:03:17;28.70;36.80
7254;DHT22;4060;49.186;9.226;2023-06-24T10:05:47;28.70;36.60
7254;DHT22;4060;49.186;9.226;2023-06-24T10:08:17;28.80;36.60
7254;DHT22;4060;49.186;9.226;2023-06-24T10:10:49;28.80;36.30
7254;DHT22;4060;49.186;9.226;2023-06-24T10:13:18;28.80;36.00
7254;DHT22;4060;49.186;9.226;2023-06-24T10:15:48;28.90;35.90
7254;DHT22;4060;49.186;9.226;2023-06-24T10:18:38;28.90;35.80
7254;DHT22;4060;49.186;9.226;2023-06-24T10:21:09;28.90;35.50
7254;DHT22;4060;49.186;9.226;2023-06-24T10:23:41;28.90;35.60
7254;DHT22;4060;49.186;9.226;2023-06-24T10:26:24;29.00;35.40
7254;DHT22;4060;49.186;9.226;2023-06-24T10:29:13;29.00;35.20
7254;DHT22;4060;49.186;9.226;2023-06-24T10:31:54;29.10;35.20
7254;DHT22;4060;49.186;9.226;2023-06-24T10:34:32;29.10;35.20
7254;DHT22;4060;49.186;9.226;2023-06-24T10:37:04;29.10;35.10
7254;DHT22;4060;49.186;9.226;2023-06-24T10:39:40;29.10;35.10
7254;DHT22;4060;49.186;9.226;2023-06-24T10:42:30;29.20;35.10
7254;DHT22;4060;49.186;9.226;2023-06-24T10:45:01;29.20;34.60
7254;DHT22;4060;49.186;9.226;2023-06-24T10:47:31;29.20;34.30
7254;DHT22;4060;49.186;9.226;2023-06-24T10:50:00;29.30;34.00
7254;DHT22;4060;49.186;9.226;2023-06-24T10:52:30;29.20;33.70
7254;DHT22;4060;49.186;9.226;2023-06-24T10:54:59;29.30;33.30
7254;DHT22;4060;49.186;9.226;2023-06-24T10:57:31;29.30;33.10
7254;DHT22;4060;49.186;9.226;2023-06-24T11:00:02;29.30;32.90
7254;DHT22;4060;49.186;9.226;2023-06-24T11:02:32;29.30;32.60
7254;DHT22;4060;49.186;9.226;2023-06-24T11:05:04;29.40;32.30
7254;DHT22;4060;49.186;9.226;2023-06-24T11:07:34;29.40;32.00
7254;DHT22;4060;49.186;9.226;2023-06-24T11:10:06;29.40;31.90
7254;DHT22;4060;49.186;9.226;2023-06-24T11:12:44;29.50;31.80
7254;DHT22;4060;49.186;9.226;2023-06-24T11:15:14;29.40;31.60
7254;DHT22;4060;49.186;9.226;2023-06-24T11:17:44;29.50;31.60
7254;DHT22;4060;49.186;9.226;2023-06-24T11:20:14;29.50;31.70
7254;DHT22;4060;49.186;9.226;2023-06-24T11:22:44;29.60;31.80
7254;DHT22;4060;49.186;9.226;2023-06-24T11:25:15;29.60;31.80
7254;DHT22;4060;49.186;9.226;2023-06-24T11:27:47;29.60;31.80
7254;DHT22;4060;49.186;9.226;2023-06-24T11:30:17;29.70;31.70
7254;DHT22;4060;49.186;9.226;2023-06-24T11:32:48;29.70;31.40
7254;DHT22;4060;49.186;9.226;2023-06-24T11:35:17;29.70;31.00
7254;DHT22;4060;49.186;9.226;2023-06-24T11:37:47;29.70;30.90
7254;DHT22;4060;49.186;9.226;2023-06-24T11:40:18;29.80;30.70
7254;DHT22;4060;49.186;9.226;2023-06-24T11:42:52;29.80;30.40
7254;DHT22;4060;49.186;9.226;2023-06-24T11:45:21;29.80;30.20
7254;DHT22;4060;49.186;9.226;2023-06-24T11:47:51;29.80;30.10
7254;DHT22;4060;49.186;9.226;2023-06-24T11:50:27;29.80;30.00
7254;DHT22;4060;49.186;9.226;2023-06-24T11:52:56;29.90;30.00
7254;DHT22;4060;49.186;9.226;2023-06-24T11:55:27;29.90;30.00
7254;DHT22;4060;49.186;9.226;2023-06-24T11:58:00;30.00;30.00
7254;DHT22;4060;49.186;9.226;2023-06-24T12:00:32;30.00;30.00
7254;DHT22;4060;49.186;9.226;2023-06-24T12:03:04;30.00;30.00
7254;DHT22;4060;49.186;9.226;2023-06-24T12:05:34;30.10;30.00
7254;DHT22;4060;49.186;9.226;2023-06-24T12:08:06;30.10;30.00
7254;DHT22;4060;49.186;9.226;2023-06-24T12:10:36;30.10;30.00
7254;DHT22;4060;49.186;9.226;2023-06-24T12:13:09;30.10;30.00
7254;DHT22;4060;49.186;9.226;2023-06-24T12:15:38;30.20;30.10
7254;DHT22;4060;49.186;9.226;2023-06-24T12:18:08;30.20;30.10
7254;DHT22;4060;49.186;9.226;2023-06-24T12:21:18;30.20;30.00
7254;DHT22;4060;49.186;9.226;2023-06-24T12:23:47;30.30;29.90
7254;DHT22;4060;49.186;9.226;2023-06-24T12:26:17;30.30;30.00
7254;DHT22;4060;49.186;9.226;2023-06-24T12:28:47;30.30;29.90
7254;DHT22;4060;49.186;9.226;2023-06-24T12:31:16;30.40;29.80
7254;DHT22;4060;49.186;9.226;2023-06-24T12:33:45;30.40;29.80
7254;DHT22;4060;49.186;9.226;2023-06-24T12:36:15;30.40;29.60
7254;DHT22;4060;49.186;9.226;2023-06-24T12:38:44;30.50;29.60
7254;DHT22;4060;49.186;9.226;2023-06-24T12:41:21;30.50;29.60
7254;DHT22;4060;49.186;9.226;2023-06-24T12:43:52;30.50;29.60
7254;DHT22;4060;49.186;9.226;2023-06-24T12:46:22;30.60;29.70
7254;DHT22;4060;49.186;9.226;2023-06-24T12:48:52;30.60;29.60
7254;DHT22;4060;49.186;9.226;2023-06-24T12:51:22;30.70;29.60
7254;DHT22;4060;49.186;9.226;2023-06-24T12:53:51;30.70;29.60
7254;DHT22;4060;49.186;9.226;2023-06-24T12:56:21;30.70;29.60
7254;DHT22;4060;49.186;9.226;2023-06-24T12:58:53;30.80;29.60
7254;DHT22;4060;49.186;9.226;2023-06-24T13:01:23;30.90;29.50
7254;DHT22;4060;49.186;9.226;2023-06-24T13:03:52;30.90;29.50
7254;DHT22;4060;49.186;9.226;2023-06-24T13:06:22;30.90;29.50
7254;DHT22;4060;49.186;9.226;2023-06-24T13:08:52;30.90;29.50
7254;DHT22;4060;49.186;9.226;2023-06-24T13:11:21;30.90;29.40
7254;DHT22;4060;49.186;9.226;2023-06-24T13:13:52;30.90;29.40
7254;DHT22;4060;49.186;9.226;2023-06-24T13:16:22;31.00;29.30
7254;DHT22;4060;49.186;9.226;2023-06-24T13:18:52;31.00;29.30
7254;DHT22;4060;49.186;9.226;2023-06-24T13:21:21;31.10;29.30
7254;DHT22;4060;49.186;9.226;2023-06-24T13:24:20;31.10;29.20
7254;DHT22;4060;49.186;9.226;2023-06-24T13:26:50;31.10;29.10
7254;DHT22;4060;49.186;9.226;2023-06-24T13:29:21;31.20;29.10
7254;DHT22;4060;49.186;9.226;2023-06-24T13:31:50;31.20;28.60
7254;DHT22;4060;49.186;9.226;2023-06-24T13:34:21;31.20;28.40
7254;DHT22;4060;49.186;9.226;2023-06-24T13:36:51;31.10;28.30
7254;DHT22;4060;49.186;9.226;2023-06-24T13:39:21;31.10;28.40
7254;DHT22;4060;49.186;9.226;2023-06-24T13:41:51;31.10;28.40
7254;DHT22;4060;49.186;9.226;2023-06-24T13:44:23;31.10;28.40
7254;DHT22;4060;49.186;9.226;2023-06-24T13:46:53;31.20;28.50
7254;DHT22;4060;49.186;9.226;2023-06-24T13:49:22;31.20;28.50
7254;DHT22;4060;49.186;9.226;2023-06-24T13:51:53;31.20;28.50
7254;DHT22;4060;49.186;9.226;2023-06-24T13:54:23;31.30;28.60
7254;DHT22;4060;49.186;9.226;2023-06-24T13:57:00;31.40;28.70
7254;DHT22;4060;49.186;9.226;2023-06-24T13:59:32;31.40;28.60
7254;DHT22;4060;49.186;9.226;2023-06-24T14:02:01;31.50;28.60
7254;DHT22;4060;49.186;9.226;2023-06-24T14:04:31;31.50;28.70
7254;DHT22;4060;49.186;9.226;2023-06-24T14:07:00;31.60;28.70
7254;DHT22;4060;49.186;9.226;2023-06-24T14:09:32;31.60;28.60
7254;DHT22;4060;49.186;9.226;2023-06-24T14:12:01;31.60;28.60
7254;DHT22;4060;49.186;9.226;2023-06-24T14:14:35;31.70;28.60
7254;DHT22;4060;49.186;9.226;2023-06-24T14:17:06;31.70;28.50
7254;DHT22;4060;49.186;9.226;2023-06-24T14:19:39;31.70;28.50
7254;DHT22;4060;49.186;9.226;2023-06-24T14:22:08;31.80;28.60
7254;DHT22;4060;49.186;9.226;2023-06-24T14:24:38;31.80;28.50
7254;DHT22;4060;49.186;9.226;2023-06-24T14:27:08;31.90;28.50
7254;DHT22;4060;49.186;9.226;2023-06-24T14:29:38;31.90;28.50
7254;DHT22;4060;49.186;9.226;2023-06-24T14:32:08;31.90;28.40
7254;DHT22;4060;49.186;9.226;2023-06-24T14:34:38;31.90;28.40
7254;DHT22;4060;49.186;9.226;2023-06-24T14:37:07;31.90;28.30
7254;DHT22;4060;49.186;9.226;2023-06-24T14:39:37;32.00;28.30
7254;DHT22;4060;49.186;9.226;2023-06-24T14:42:08;32.00;28.20
7254;DHT22;4060;49.186;9.226;2023-06-24T14:44:39;32.00;28.10
7254;DHT22;4060;49.186;9.226;2023-06-24T14:47:09;32.00;28.00
7254;DHT22;4060;49.186;9.226;2023-06-24T14:49:38;32.00;28.00
7254;DHT22;4060;49.186;9.226;2023-06-24T14:52:08;32.00;28.40
7254;DHT22;4060;49.186;9.226;2023-06-24T14:54:37;32.10;28.00
7254;DHT22;4060;49.186;9.226;2023-06-24T14:57:07;32.10;28.00
7254;DHT22;4060;49.186;9.226;2023-06-24T14:59:39;32.10;28.00
7254;DHT22;4060;49.186;9.226;2023-06-24T15:02:08;32.10;28.00
7254;DHT22;4060;49.186;9.226;2023-06-24T15:04:38;32.20;28.00
7254;DHT22;4060;49.186;9.226;2023-06-24T15:07:08;32.20;28.00
7254;DHT22;4060;49.186;9.226;2023-06-24T15:09:37;32.20;28.00
7254;DHT22;4060;49.186;9.226;2023-06-24T15:12:07;32.20;28.00
7254;DHT22;4060;49.186;9.226;2023-06-24T15:14:38;32.20;28.00
7254;DHT22;4060;49.186;9.226;2023-06-24T15:17:08;32.30;28.00
7254;DHT22;4060;49.186;9.226;2023-06-24T15:19:37;32.30;28.00
7254;DHT22;4060;49.186;9.226;2023-06-24T15:22:06;32.30;27.90
7254;DHT22;4060;49.186;9.226;2023-06-24T15:24:37;32.30;27.90
7254;DHT22;4060;49.186;9.226;2023-06-24T15:27:06;32.40;27.90
7254;DHT22;4060;49.186;9.226;2023-06-24T15:29:38;32.40;28.00
7254;DHT22;4060;49.186;9.226;2023-06-24T15:32:08;32.40;28.00
7254;DHT22;4060;49.186;9.226;2023-06-24T15:34:37;32.50;28.00
7254;DHT22;4060;49.186;9.226;2023-06-24T15:37:07;32.50;27.90
7254;DHT22;4060;49.186;9.226;2023-06-24T15:39:37;32.50;27.90
7254;DHT22;4060;49.186;9.226;2023-06-24T15:42:07;32.50;28.00
7254;DHT22;4060;49.186;9.226;2023-06-24T15:44:41;32.50;28.00
7254;DHT22;4060;49.186;9.226;2023-06-24T15:47:11;32.50;27.90
7254;DHT22;4060;49.186;9.226;2023-06-24T15:49:40;32.50;27.80
7254;DHT22;4060;49.186;9.226;2023-06-24T15:52:10;32.50;27.80
7254;DHT22;4060;49.186;9.226;2023-06-24T15:54:40;32.60;27.80
7254;DHT22;4060;49.186;9.226;2023-06-24T15:57:09;32.50;27.70
7254;DHT22;4060;49.186;9.226;2023-06-24T15:59:42;32.60;27.70
7254;DHT22;4060;49.186;9.226;2023-06-24T16:02:12;32.60;27.70
7254;DHT22;4060;49.186;9.226;2023-06-24T16:04:41;32.60;27.70
7254;DHT22;4060;49.186;9.226;2023-06-24T16:07:11;32.60;27.60
7254;DHT22;4060;49.186;9.226;2023-06-24T16:09:40;32.60;27.70
7254;DHT22;4060;49.186;9.226;2023-06-24T16:12:10;32.70;27.70
7254;DHT22;4060;49.186;9.226;2023-06-24T16:14:42;32.70;27.70
7254;DHT22;4060;49.186;9.226;2023-06-24T16:17:11;32.70;27.70
7254;DHT22;4060;49.186;9.226;2023-06-24T16:19:40;32.70;27.70
7254;DHT22;4060;49.186;9.226;2023-06-24T16:22:10;32.80;27.70
7254;DHT22;4060;49.186;9.226;2023-06-24T16:24:39;32.80;27.80
7254;DHT22;4060;49.186;9.226;2023-06-24T16:27:08;32.80;27.70
7254;DHT22;4060;49.186;9.226;2023-06-24T16:29:37;32.80;27.70
7254;DHT22;4060;49.186;9.226;2023-06-24T16:32:09;32.80;27.70
7254;DHT22;4060;49.186;9.226;2023-06-24T16:34:38;32.80;27.70